LATI METAR and TAF | Updated Today

LATI METAR

Tirana International Airport Mother Teresa

Observation time: 22 min. ago

LATI 251920Z 13004KT 090V160 CAVOK 21/12 Q1018 NOSIG

Need help? Read our tutorial on how to read METARs or read the parsed version below.

Tirana International Airport Mother Teresa (LATI) METAR

  • Weather conditions on Wed, 25 May 2022 19:20:00 +0000 (22 min. ago):
  • Present conditions: Dry
  • Clouds: Clear skies
  • Visibility: Greater than 10 km
  • Wind: 130 degrees at 4 knots
  • Temperature: 21 celsius
  • Dew point: 12 celsius
  • Pressure: 1018 millibars
  • Remarks: None


Useful to know...

LATI TAF

Tirana International Airport Mother Teresa

TAF LATI 251700Z 2518/2618 VRB05KT CAVOK TX34/2612Z TN16/2603Z
Observation time: 2:42 hr. ago
Need help? Read our tutorial on how to read TAFs or read the parsed version below.

Parsed version of TAF for Tirana International Airport Mother Teresa (LATI)

  • From 25 May at 18:00 UTC, to day 26 of the month at 18:00 UTC
  • Visibility: Greater than 10 km
  • Wind: Variable at 5

Airports near LATI

No airports found within 100nm radius.